createdAt,value
2023-02-03T00:02:43.946Z,100991.22
2023-02-03T00:07:46.109Z,101005.31
2023-02-03T00:12:53.162Z,101017.41
2023-02-03T00:17:55.249Z,100997.31
2023-02-03T00:23:07.885Z,101008.03
2023-02-03T00:28:10.229Z,100992.44
2023-02-03T00:33:12.393Z,101001.66
2023-02-03T00:38:14.517Z,100985.72
2023-02-03T00:43:16.579Z,100966.31
2023-02-03T00:48:18.675Z,100969.38
2023-02-03T00:53:20.954Z,100973.25
2023-02-03T00:58:23.469Z,100985.63
2023-02-03T01:03:25.763Z,100982.75
2023-02-03T01:08:27.835Z,100975.19
2023-02-03T01:13:29.927Z,100969.56
2023-02-03T01:18:32.029Z,100970.38
2023-02-03T01:23:35.053Z,100993.72
2023-02-03T01:28:37.986Z,100988.75
2023-02-03T01:33:41.283Z,100973.31
2023-02-03T01:38:43.554Z,100986.19
2023-02-03T01:43:54.101Z,100998.25
2023-02-03T01:49:19.171Z,100996.00
2023-02-03T01:54:32.209Z,100986.69
2023-02-03T01:59:35.604Z,100959.22
2023-02-03T02:04:47.083Z,100953.19
2023-02-03T02:09:50.069Z,100987.00
2023-02-03T02:14:52.474Z,100982.66
2023-02-03T02:20:22.096Z,100987.41
2023-02-03T02:25:42.466Z,100994.44
2023-02-03T02:31:14.478Z,100989.91
2023-02-03T02:36:31.414Z,100981.34
2023-02-03T02:41:51.167Z,100961.56
2023-02-03T02:47:03.456Z,100992.50
2023-02-03T02:52:08.717Z,100978.78
2023-02-03T02:57:13.532Z,100991.75
2023-02-03T03:02:15.799Z,100985.34
2023-02-03T03:07:24.406Z,101004.28
2023-02-03T03:12:34.838Z,101011.41
2023-02-03T03:17:49.085Z,101006.34
2023-02-03T03:22:59.730Z,101029.56
2023-02-03T03:28:10.745Z,101000.88
2023-02-03T03:33:13.101Z,100979.44
2023-02-03T03:38:33.960Z,101004.47
2023-02-03T03:43:42.733Z,101005.72
2023-02-03T03:48:54.781Z,101007.56
2023-02-03T03:54:01.092Z,100997.69
2023-02-03T03:59:05.569Z,100983.69
2023-02-03T04:04:11.592Z,101005.25
2023-02-03T04:09:13.678Z,100966.75
2023-02-03T04:14:15.831Z,100976.78
2023-02-03T04:19:17.927Z,100980.75
2023-02-03T04:24:20.052Z,101012.19
2023-02-03T04:29:22.147Z,100999.50
2023-02-03T04:34:24.287Z,101033.66
2023-02-03T04:39:26.413Z,101016.41
2023-02-03T04:44:28.533Z,101065.59
2023-02-03T04:49:30.608Z,101071.84
2023-02-03T04:54:32.757Z,101099.28
2023-02-03T04:59:34.877Z,101095.16
2023-02-03T05:04:37.045Z,101090.25
2023-02-03T05:09:39.170Z,101123.59
2023-02-03T05:14:41.271Z,101115.75
2023-02-03T05:19:43.485Z,101091.41
2023-02-03T05:24:45.746Z,101127.72
2023-02-03T05:29:47.890Z,101172.41
2023-02-03T05:34:49.968Z,101170.78
2023-02-03T05:39:52.036Z,101178.59
2023-02-03T05:44:54.093Z,101170.75
2023-02-03T05:49:56.190Z,101220.69
2023-02-03T05:54:58.313Z,101208.88
2023-02-03T06:00:00.416Z,101207.41
2023-02-03T06:05:02.515Z,101258.81
2023-02-03T06:10:04.959Z,101246.59
2023-02-03T06:15:07.390Z,101253.59
2023-02-03T06:20:11.268Z,101269.25
2023-02-03T06:25:14.713Z,101303.81
2023-02-03T06:30:17.514Z,101319.59
2023-02-03T06:35:19.656Z,101307.50
2023-02-03T06:40:21.887Z,101312.53
2023-02-03T06:45:25.206Z,101279.75
2023-02-03T06:50:27.519Z,101291.63
2023-02-03T06:55:29.972Z,101250.34
2023-02-03T07:00:32.417Z,101258.66
2023-02-03T07:05:36.382Z,101302.84
2023-02-03T07:10:38.538Z,101305.97
2023-02-03T07:15:41.287Z,101314.00
2023-02-03T07:20:43.389Z,101347.47
2023-02-03T07:25:45.756Z,101359.31
2023-02-03T07:30:49.576Z,101373.97
2023-02-03T07:35:55.298Z,101344.78
2023-02-03T07:40:57.407Z,101359.19
2023-02-03T07:46:00.067Z,101386.63
2023-02-03T07:51:02.261Z,101389.63
2023-02-03T07:56:05.954Z,101395.91
2023-02-03T08:01:16.990Z,101400.72
2023-02-03T08:06:19.220Z,101385.84
2023-02-03T08:11:21.415Z,101352.66
2023-02-03T08:16:23.662Z,101368.75
2023-02-03T08:21:25.792Z,101407.59
2023-02-03T08:26:27.904Z,101380.31
2023-02-03T08:31:31.262Z,101377.13
2023-02-03T08:36:33.516Z,101377.44
2023-02-03T08:41:36.117Z,101409.63
2023-02-03T08:46:43.879Z,101369.81
2023-02-03T08:51:48.426Z,101398.75
2023-02-03T08:56:51.319Z,101405.63
2023-02-03T09:01:53.501Z,101394.22
2023-02-03T09:06:56.061Z,101421.22
2023-02-03T09:12:03.169Z,101414.38
2023-02-03T09:17:07.820Z,101392.13
2023-02-03T09:22:10.001Z,101395.22
2023-02-03T09:27:13.611Z,101380.81
2023-02-03T09:32:15.986Z,101404.00
2023-02-03T09:37:18.315Z,101395.91
2023-02-03T09:42:45.179Z,101410.66
2023-02-03T09:47:54.305Z,101390.81
2023-02-03T09:52:57.978Z,101407.03
2023-02-03T09:58:12.711Z,101404.25
2023-02-03T10:03:37.016Z,101399.47
2023-02-03T10:09:22.115Z,101388.06
2023-02-03T10:14:50.248Z,101391.28
2023-02-03T10:20:13.349Z,101383.22
2023-02-03T10:25:15.591Z,101370.78
2023-02-03T10:30:25.940Z,101359.84
2023-02-03T10:36:00.343Z,101327.13
2023-02-03T10:41:03.696Z,101352.00
2023-02-03T10:46:06.074Z,101303.84
2023-02-03T10:51:20.110Z,101326.59
2023-02-03T10:56:44.378Z,101300.53
2023-02-03T11:01:49.715Z,101296.94
2023-02-03T11:07:02.140Z,101315.56
2023-02-03T11:12:16.822Z,101308.72
2023-02-03T11:17:27.992Z,101274.19
2023-02-03T11:22:40.704Z,101282.31
2023-02-03T11:27:43.508Z,101260.34
2023-02-03T11:32:48.276Z,101280.59
2023-02-03T11:37:56.504Z,101294.28
2023-02-03T11:42:58.741Z,101289.34
2023-02-03T11:48:45.077Z,101280.03
2023-02-03T11:54:13.074Z,101284.81
2023-02-03T11:59:45.965Z,101274.53
2023-02-03T12:04:51.035Z,101271.03
2023-02-03T12:10:02.755Z,101268.75
2023-02-03T12:15:51.108Z,101257.34
2023-02-03T12:21:02.175Z,101266.81
2023-02-03T12:26:46.004Z,101270.44
2023-02-03T12:32:01.690Z,101264.91
2023-02-03T12:37:17.736Z,101253.41
2023-02-03T12:42:42.657Z,101243.19
2023-02-03T12:48:01.063Z,101241.19
2023-02-03T12:53:13.633Z,101224.50
2023-02-03T12:58:37.079Z,101222.94
2023-02-03T13:04:10.155Z,101241.56
2023-02-03T13:09:44.852Z,101245.41
2023-02-03T13:15:00.244Z,101215.72
2023-02-03T13:20:16.205Z,101209.19
2023-02-03T13:25:36.396Z,101227.97
2023-02-03T13:30:56.459Z,101190.75
2023-02-03T13:36:06.759Z,101218.78
2023-02-03T13:41:38.975Z,101216.31
2023-02-03T13:46:41.641Z,101235.69
2023-02-03T13:51:46.550Z,101221.63
2023-02-03T13:57:07.495Z,101208.22
2023-02-03T14:02:27.544Z,101219.66
2023-02-03T14:07:40.278Z,101195.38
2023-02-03T14:12:51.487Z,101202.72
2023-02-03T14:17:53.564Z,101203.91
2023-02-03T14:23:12.571Z,101175.75
2023-02-03T14:28:18.984Z,101167.31
2023-02-03T14:33:26.045Z,101166.78
2023-02-03T14:38:33.575Z,101167.88
2023-02-03T14:43:52.363Z,101189.81
2023-02-03T14:49:39.218Z,101167.81
2023-02-03T14:55:19.763Z,101151.50
2023-02-03T15:00:25.877Z,101184.25
2023-02-03T15:05:29.659Z,101182.28
2023-02-03T15:10:42.938Z,101175.81
2023-02-03T15:15:45.988Z,101168.53
2023-02-03T15:20:53.318Z,101169.16
2023-02-03T15:26:14.007Z,101184.75
2023-02-03T15:31:25.869Z,101188.41
2023-02-03T15:36:39.860Z,101154.03
2023-02-03T15:41:42.708Z,101151.84
2023-02-03T15:46:52.219Z,101202.75
2023-02-03T15:52:02.367Z,101206.78
2023-02-03T15:57:11.127Z,101218.81
2023-02-03T16:02:21.209Z,101224.34
2023-02-03T16:07:25.249Z,101222.19
2023-02-03T16:12:34.011Z,101214.50
2023-02-03T16:17:39.560Z,101209.88
2023-02-03T16:23:02.104Z,101222.53
2023-02-03T16:28:31.036Z,101217.63
2023-02-03T16:33:53.010Z,101217.94
2023-02-03T16:39:14.310Z,101199.88
2023-02-03T16:44:35.160Z,101239.81
2023-02-03T16:49:56.042Z,101236.38
2023-02-03T16:54:59.129Z,101228.50
2023-02-03T17:00:01.297Z,101207.72
2023-02-03T17:05:03.489Z,101242.75
2023-02-03T17:10:05.985Z,101241.59
2023-02-03T17:15:09.044Z,101253.84
2023-02-03T17:20:11.475Z,101254.69
2023-02-03T17:25:13.911Z,101244.13
2023-02-03T17:30:16.692Z,101249.50
2023-02-03T17:35:18.843Z,101262.22
2023-02-03T17:56:42.324Z,101242.72
2023-02-03T18:01:44.467Z,101221.47
2023-02-03T18:06:46.845Z,101230.59
2023-02-03T18:11:49.063Z,101181.50
2023-02-03T18:16:51.263Z,101195.97
2023-02-03T18:21:53.370Z,101199.50
2023-02-03T18:26:56.183Z,101192.66
2023-02-03T18:31:58.432Z,101196.06
2023-02-03T18:37:00.605Z,101176.81
2023-02-03T18:42:03.078Z,101152.75
2023-02-03T18:47:08.778Z,101206.28
2023-02-03T18:52:10.904Z,101193.00
2023-02-03T18:57:16.085Z,101167.91
2023-02-03T19:02:18.423Z,101162.66
2023-02-03T19:07:20.663Z,101149.66
2023-02-03T19:12:22.963Z,101169.81
2023-02-03T19:17:25.255Z,101133.25
2023-02-03T19:22:27.524Z,101179.03
2023-02-03T19:27:29.622Z,101155.22
2023-02-03T19:32:32.245Z,101160.25
2023-02-03T19:37:34.452Z,101175.38
2023-02-03T19:42:36.702Z,101156.53
2023-02-03T19:47:38.882Z,101136.41
2023-02-03T19:52:41.029Z,101143.09
2023-02-03T19:57:43.228Z,101178.19
2023-02-03T20:02:45.347Z,101145.81
2023-02-03T20:07:47.843Z,101150.50
2023-02-03T20:12:49.990Z,101158.38
2023-02-03T20:17:52.164Z,101152.84
2023-02-03T20:22:54.422Z,101156.63
2023-02-03T20:27:58.502Z,101156.75
2023-02-03T20:33:00.836Z,101116.00
2023-02-03T20:38:02.978Z,101124.16
2023-02-03T20:43:20.397Z,101114.09
2023-02-03T20:48:25.794Z,101096.25
2023-02-03T20:53:28.059Z,101057.16
2023-02-03T20:58:34.839Z,101077.09
2023-02-03T21:03:55.784Z,101100.78
2023-02-03T21:09:20.008Z,101096.19
2023-02-03T21:14:26.389Z,101091.28
2023-02-03T21:19:33.911Z,101099.88
2023-02-03T21:24:38.254Z,101086.44
2023-02-03T21:29:41.307Z,101064.16
2023-02-03T21:34:44.896Z,101052.72
2023-02-03T21:39:48.434Z,101046.53
2023-02-03T21:44:51.087Z,101036.38
2023-02-03T21:49:53.450Z,101026.84
2023-02-03T21:54:55.705Z,100983.75
2023-02-03T21:59:58.052Z,100977.94
2023-02-03T22:05:00.932Z,101003.41
2023-02-03T22:10:03.077Z,101009.13
2023-02-03T22:15:05.560Z,101012.19
2023-02-03T22:20:08.246Z,100999.38
2023-02-03T22:25:10.439Z,101001.94
2023-02-03T22:30:16.612Z,100969.13
2023-02-03T22:35:18.824Z,100984.50
2023-02-03T22:40:22.189Z,100984.13
2023-02-03T22:45:24.449Z,100956.31
2023-02-03T22:50:35.570Z,100954.63
2023-02-03T22:55:38.813Z,100925.59
2023-02-03T23:00:41.181Z,100925.22
2023-02-03T23:05:43.325Z,100913.03
2023-02-03T23:10:45.470Z,100939.31
2023-02-03T23:15:48.697Z,100916.38
2023-02-03T23:20:50.945Z,100899.41
2023-02-03T23:25:53.123Z,100900.44
2023-02-03T23:30:56.412Z,100884.66
2023-02-03T23:35:58.680Z,100916.88
2023-02-03T23:41:00.889Z,100843.84
2023-02-03T23:46:03.528Z,100873.91
2023-02-03T23:51:06.136Z,100889.97
2023-02-03T23:56:08.306Z,100849.78
